createdAt,value
2023-05-23T00:02:13.497Z,61.69
2023-05-23T00:04:42.949Z,62.25
2023-05-23T00:07:11.635Z,61.48
2023-05-23T00:09:39.793Z,61.59
2023-05-23T00:12:08.713Z,61.99
2023-05-23T00:14:37.096Z,62.35
2023-05-23T00:17:05.821Z,62.42
2023-05-23T00:19:36.500Z,62.59
2023-05-23T00:22:05.461Z,62.90
2023-05-23T00:24:33.634Z,63.07
2023-05-23T00:27:02.035Z,62.75
2023-05-23T00:29:30.245Z,63.11
2023-05-23T00:31:58.385Z,63.45
2023-05-23T00:34:26.612Z,63.45
2023-05-23T00:36:56.127Z,63.43
2023-05-23T00:39:24.305Z,62.54
2023-05-23T00:41:53.426Z,63.19
2023-05-23T00:44:22.601Z,63.68
2023-05-23T00:46:57.457Z,63.87
2023-05-23T00:49:28.061Z,62.28
2023-05-23T00:51:57.820Z,63.14
2023-05-23T00:54:31.197Z,63.46
2023-05-23T00:57:00.683Z,62.87
2023-05-23T00:59:28.939Z,63.36
2023-05-23T01:02:00.390Z,62.52
2023-05-23T01:04:29.038Z,62.00
2023-05-23T01:06:58.903Z,63.15
2023-05-23T01:09:30.083Z,64.59
2023-05-23T01:12:16.815Z,65.63
2023-05-23T01:15:00.473Z,66.51
2023-05-23T01:17:42.028Z,66.87
2023-05-23T01:20:17.912Z,67.58
2023-05-23T01:23:30.894Z,66.07
2023-05-23T01:26:34.997Z,65.56
2023-05-23T01:29:12.186Z,66.17
2023-05-23T01:31:46.981Z,68.12
2023-05-23T01:34:17.061Z,67.87
2023-05-23T01:36:45.660Z,68.41
2023-05-23T01:39:13.807Z,68.72
2023-05-23T01:41:42.045Z,69.13
2023-05-23T01:44:11.901Z,68.36
2023-05-23T01:46:41.734Z,69.73
2023-05-23T01:49:14.566Z,70.50
2023-05-23T01:51:44.028Z,69.55
2023-05-23T01:54:12.901Z,70.10
2023-05-23T01:56:43.061Z,70.15
2023-05-23T01:59:13.563Z,70.13
2023-05-23T02:01:42.902Z,70.43
2023-05-23T02:04:11.140Z,71.13
2023-05-23T02:06:39.290Z,71.49
2023-05-23T02:09:07.635Z,72.45
2023-05-23T02:11:36.771Z,72.57
2023-05-23T02:14:04.943Z,73.33
2023-05-23T02:16:36.619Z,73.72
2023-05-23T02:19:05.373Z,74.88
2023-05-23T02:21:35.532Z,75.63
2023-05-23T02:24:04.035Z,76.19
2023-05-23T02:26:32.179Z,76.21
2023-05-23T02:29:00.815Z,76.19
2023-05-23T02:31:29.095Z,76.68
2023-05-23T02:33:58.644Z,76.88
2023-05-23T02:36:27.060Z,77.14
2023-05-23T02:38:56.750Z,76.94
2023-05-23T02:41:24.978Z,77.14
2023-05-23T02:43:53.100Z,77.10
2023-05-23T02:46:21.554Z,77.28
2023-05-23T02:48:49.718Z,77.49
2023-05-23T02:51:19.418Z,78.04
2023-05-23T02:53:47.587Z,78.43
2023-05-23T02:56:15.820Z,78.50
2023-05-23T02:58:43.945Z,78.80
2023-05-23T03:01:12.078Z,78.87
2023-05-23T03:03:41.653Z,79.01
2023-05-23T03:06:14.417Z,79.16
2023-05-23T03:08:45.085Z,78.31
2023-05-23T03:11:13.257Z,78.77
2023-05-23T03:13:41.497Z,79.91
2023-05-23T03:16:09.710Z,80.33
2023-05-23T03:18:38.143Z,80.04
2023-05-23T03:21:06.561Z,79.86
2023-05-23T03:23:34.744Z,80.14
2023-05-23T03:26:06.534Z,79.89
2023-05-23T03:28:34.832Z,80.57
2023-05-23T03:31:03.380Z,79.94
2023-05-23T03:33:31.551Z,79.91
2023-05-23T03:35:59.775Z,79.48
2023-05-23T03:38:29.004Z,80.07
2023-05-23T03:40:57.426Z,80.21
2023-05-23T03:43:27.145Z,79.79
2023-05-23T03:45:55.412Z,78.77
2023-05-23T03:48:23.611Z,79.21
2023-05-23T03:50:51.807Z,78.66
2023-05-23T03:53:20.049Z,79.13
2023-05-23T03:55:48.216Z,79.12
2023-05-23T03:58:16.492Z,78.11
2023-05-23T04:00:46.687Z,79.05
2023-05-23T04:03:15.274Z,79.30
2023-05-23T04:05:43.747Z,79.24
2023-05-23T04:08:12.019Z,79.28
2023-05-23T04:10:40.347Z,78.84
2023-05-23T04:13:09.579Z,79.01
2023-05-23T04:15:37.798Z,79.55
2023-05-23T04:18:09.163Z,79.23
2023-05-23T04:20:37.790Z,78.71
2023-05-23T04:23:05.929Z,79.41
2023-05-23T04:25:34.328Z,79.56
2023-05-23T04:28:02.471Z,79.19
2023-05-23T04:30:31.293Z,79.64
2023-05-23T04:33:00.108Z,79.45
2023-05-23T04:35:29.717Z,79.75
2023-05-23T04:37:58.049Z,80.17
2023-05-23T04:40:26.370Z,79.12
2023-05-23T04:42:54.536Z,79.47
2023-05-23T04:45:23.307Z,78.43
2023-05-23T04:47:54.731Z,75.79
2023-05-23T04:50:23.362Z,77.25
2023-05-23T04:52:52.856Z,73.43
2023-05-23T04:55:21.453Z,67.21
2023-05-23T04:57:49.816Z,65.23
2023-05-23T05:00:20.397Z,65.58
2023-05-23T05:02:48.822Z,64.53
2023-05-23T05:05:17.198Z,60.50
2023-05-23T05:07:45.524Z,59.85
2023-05-23T05:10:17.259Z,58.68
2023-05-23T05:12:46.753Z,57.79
2023-05-23T05:15:15.375Z,57.58
2023-05-23T05:17:43.574Z,55.62
2023-05-23T05:20:12.813Z,53.63
2023-05-23T05:22:42.512Z,53.84
2023-05-23T05:25:13.896Z,56.03
2023-05-23T05:27:42.997Z,58.27
2023-05-23T05:30:12.317Z,60.67
2023-05-23T05:32:42.096Z,62.21
2023-05-23T05:35:13.968Z,63.48
2023-05-23T05:37:42.141Z,64.47
2023-05-23T05:40:10.878Z,64.69
2023-05-23T05:42:40.489Z,66.09
2023-05-23T05:45:11.465Z,66.82
2023-05-23T05:47:39.853Z,67.93
2023-05-23T05:50:09.449Z,68.99
2023-05-23T05:52:39.702Z,67.40
2023-05-23T05:55:11.318Z,66.56
2023-05-23T05:57:41.473Z,65.58
2023-05-23T06:00:14.876Z,65.81
2023-05-23T06:02:44.010Z,65.18
2023-05-23T06:05:13.186Z,65.55
2023-05-23T06:07:41.878Z,65.21
2023-05-23T06:10:13.052Z,66.07
2023-05-23T06:12:42.660Z,66.07
2023-05-23T06:15:13.294Z,66.98
2023-05-23T06:17:41.744Z,67.35
2023-05-23T06:20:10.859Z,67.40
2023-05-23T06:22:39.110Z,68.79
2023-05-23T06:25:08.939Z,69.38
2023-05-23T06:27:38.076Z,70.02
2023-05-23T06:30:09.559Z,70.85
2023-05-23T06:32:37.774Z,71.07
2023-05-23T06:35:07.129Z,70.78
2023-05-23T06:37:36.253Z,71.80
2023-05-23T06:40:05.516Z,72.19
2023-05-23T06:42:33.694Z,72.08
2023-05-23T06:45:01.830Z,70.32
2023-05-23T06:47:31.481Z,70.12
2023-05-23T06:49:59.675Z,70.34
2023-05-23T06:52:27.830Z,70.38
2023-05-23T06:54:55.966Z,69.67
2023-05-23T06:57:24.115Z,68.39
2023-05-23T06:59:52.332Z,68.06
2023-05-23T07:02:20.552Z,68.54
2023-05-23T07:04:50.055Z,68.13
2023-05-23T07:07:18.288Z,67.55
2023-05-23T07:09:46.519Z,66.87
2023-05-23T07:12:15.187Z,64.92
2023-05-23T07:14:43.346Z,65.14
2023-05-23T07:17:11.676Z,64.69
2023-05-23T07:19:39.902Z,64.15
2023-05-23T07:22:09.430Z,64.26
2023-05-23T07:24:38.140Z,63.31
2023-05-23T07:27:06.870Z,63.12
2023-05-23T07:29:35.119Z,62.17
2023-05-23T07:32:03.302Z,62.20
2023-05-23T07:34:31.679Z,61.90
2023-05-23T07:36:59.856Z,62.26
2023-05-23T07:39:29.379Z,61.86
2023-05-23T07:41:57.579Z,62.30
2023-05-23T07:44:25.722Z,62.04
2023-05-23T07:46:54.140Z,62.46
2023-05-23T07:49:22.415Z,62.19
2023-05-23T07:51:50.676Z,62.18
2023-05-23T07:54:18.775Z,61.89
2023-05-23T07:56:48.446Z,62.11
2023-05-23T07:59:16.707Z,62.97
2023-05-23T08:01:45.278Z,62.82
2023-05-23T08:04:13.546Z,62.35
2023-05-23T08:06:51.961Z,62.16
2023-05-23T08:09:28.774Z,62.51
2023-05-23T08:11:58.267Z,62.34
2023-05-23T08:14:38.263Z,62.76
2023-05-23T08:17:12.271Z,62.58
2023-05-23T08:19:40.622Z,62.25
2023-05-23T08:22:08.797Z,61.69
2023-05-23T08:24:36.969Z,62.21
2023-05-23T08:27:07.787Z,62.36
2023-05-23T08:29:37.211Z,62.23
2023-05-23T08:32:06.059Z,62.58
2023-05-23T08:34:34.222Z,62.93
2023-05-23T08:37:02.490Z,61.08
2023-05-23T08:39:30.650Z,61.15
2023-05-23T08:41:59.114Z,61.05
2023-05-23T08:44:28.690Z,61.04
2023-05-23T08:46:59.428Z,61.42
2023-05-23T08:49:27.747Z,61.31
2023-05-23T08:52:03.745Z,60.84
2023-05-23T08:54:32.773Z,60.97
2023-05-23T08:57:01.050Z,61.11
2023-05-23T08:59:32.582Z,59.72
2023-05-23T09:02:04.606Z,59.62
2023-05-23T09:04:32.976Z,58.45
2023-05-23T09:07:03.502Z,59.44
2023-05-23T09:09:33.622Z,59.22
2023-05-23T09:12:03.323Z,58.57
2023-05-23T09:14:32.876Z,58.77
2023-05-23T09:17:04.731Z,59.41
2023-05-23T09:19:33.598Z,60.01
2023-05-23T09:22:04.284Z,60.78
2023-05-23T09:24:36.932Z,61.11
2023-05-23T09:27:07.454Z,62.30
2023-05-23T09:29:40.680Z,62.86
2023-05-23T09:32:17.915Z,62.87
2023-05-23T09:34:58.074Z,63.89
2023-05-23T09:37:32.760Z,63.84
2023-05-23T09:40:02.178Z,63.57
2023-05-23T09:42:35.055Z,64.64
2023-05-23T09:45:05.904Z,64.78
2023-05-23T09:47:34.049Z,65.35
2023-05-23T09:50:02.195Z,66.28
2023-05-23T09:52:38.259Z,67.85
2023-05-23T09:55:07.903Z,67.57
2023-05-23T09:57:38.055Z,67.98
2023-05-23T10:00:11.163Z,67.55
2023-05-23T10:03:03.211Z,68.98
2023-05-23T10:05:39.245Z,69.79
2023-05-23T10:08:15.406Z,69.96
2023-05-23T10:12:22.836Z,69.65
2023-05-23T10:14:58.330Z,69.75
2023-05-23T10:17:38.245Z,69.75
2023-05-23T10:20:12.555Z,69.66
2023-05-23T10:22:41.642Z,70.44
2023-05-23T10:25:10.909Z,69.79
2023-05-23T10:27:40.672Z,69.20
2023-05-23T10:30:11.122Z,67.69
2023-05-23T10:32:42.767Z,66.92
2023-05-23T10:35:23.568Z,66.52
2023-05-23T10:38:05.558Z,66.03
2023-05-23T10:40:54.343Z,66.47
2023-05-23T10:43:32.869Z,65.95
2023-05-23T10:46:01.242Z,66.82
2023-05-23T10:48:36.625Z,67.07
2023-05-23T10:51:07.642Z,66.91
2023-05-23T10:53:40.184Z,67.12
2023-05-23T10:56:09.992Z,64.97
2023-05-23T10:58:40.773Z,63.96
2023-05-23T11:01:14.285Z,62.82
2023-05-23T11:03:55.630Z,61.81
2023-05-23T11:06:39.054Z,61.36
2023-05-23T11:09:11.865Z,59.88
2023-05-23T11:12:02.545Z,57.55
2023-05-23T11:14:55.761Z,56.70
2023-05-23T11:17:34.619Z,55.97
2023-05-23T11:20:07.936Z,56.89
2023-05-23T11:22:37.173Z,57.32
2023-05-23T11:25:10.006Z,57.62
2023-05-23T11:27:40.905Z,58.18
2023-05-23T11:30:13.576Z,58.71
2023-05-23T11:32:43.209Z,59.50
2023-05-23T11:35:12.889Z,60.89
2023-05-23T11:37:41.594Z,62.00
2023-05-23T11:40:30.945Z,63.55
2023-05-23T11:43:00.733Z,64.16
2023-05-23T11:45:31.700Z,63.79
2023-05-23T11:48:05.713Z,64.38
2023-05-23T11:50:35.879Z,64.15
2023-05-23T11:53:04.066Z,63.89
2023-05-23T11:55:32.363Z,64.67
2023-05-23T11:58:01.984Z,64.72
2023-05-23T12:00:31.607Z,65.07
2023-05-23T12:02:59.815Z,67.51
2023-05-23T12:05:30.328Z,68.15
2023-05-23T12:08:01.616Z,69.04
2023-05-23T12:10:29.749Z,67.17
2023-05-23T12:12:58.188Z,67.33
2023-05-23T12:15:28.369Z,67.62
2023-05-23T12:17:57.164Z,67.45
2023-05-23T12:20:28.716Z,67.94
2023-05-23T12:22:59.816Z,70.03
2023-05-23T12:25:27.959Z,69.97
2023-05-23T12:27:56.281Z,70.95
2023-05-23T12:30:24.384Z,70.43
2023-05-23T12:32:52.515Z,69.31
2023-05-23T12:35:21.146Z,68.94
2023-05-23T12:37:49.327Z,67.59
2023-05-23T12:40:20.364Z,65.16
2023-05-23T12:42:53.518Z,63.57
2023-05-23T12:45:23.382Z,62.93
2023-05-23T12:47:54.195Z,60.67
2023-05-23T12:50:22.657Z,61.43
2023-05-23T12:52:50.739Z,61.54
2023-05-23T12:55:20.210Z,62.08
2023-05-23T12:57:48.318Z,61.60
2023-05-23T13:00:17.446Z,60.69
2023-05-23T13:02:45.584Z,61.50
2023-05-23T13:05:13.909Z,61.71
2023-05-23T13:07:42.272Z,62.26
2023-05-23T13:10:11.810Z,62.60
2023-05-23T13:12:41.308Z,63.32
2023-05-23T13:15:11.547Z,63.11
2023-05-23T13:17:39.720Z,62.25
2023-05-23T13:20:10.520Z,61.81
2023-05-23T13:22:38.597Z,62.53
2023-05-23T13:25:08.388Z,62.44
2023-05-23T13:27:36.495Z,62.74
2023-05-23T13:30:07.826Z,63.41
2023-05-23T13:32:36.007Z,63.58
2023-05-23T13:35:04.519Z,64.54
2023-05-23T13:37:32.632Z,64.23
2023-05-23T13:40:05.661Z,64.35
2023-05-23T13:42:33.811Z,64.50
2023-05-23T13:45:01.974Z,64.90
2023-05-23T13:47:31.900Z,65.05
2023-05-23T13:49:59.974Z,65.75
2023-05-23T13:52:28.035Z,65.79
2023-05-23T13:54:56.584Z,66.02
2023-05-23T13:57:24.669Z,66.61
2023-05-23T13:59:52.739Z,66.18
2023-05-23T14:02:21.614Z,66.95
2023-05-23T14:04:51.418Z,66.77
2023-05-23T14:07:19.905Z,65.79
2023-05-23T14:09:48.061Z,65.83
2023-05-23T14:12:16.266Z,65.74
2023-05-23T14:14:44.347Z,65.48
2023-05-23T14:17:16.830Z,65.72
2023-05-23T14:19:45.527Z,65.82
2023-05-23T14:22:15.143Z,66.20
2023-05-23T14:24:43.259Z,66.84
2023-05-23T14:27:11.617Z,66.00
2023-05-23T14:29:40.095Z,65.37
2023-05-23T14:32:08.520Z,65.38
2023-05-23T14:34:37.047Z,65.02
2023-05-23T14:37:05.543Z,64.38
2023-05-23T14:39:35.788Z,64.32
2023-05-23T14:42:03.985Z,64.20
2023-05-23T14:44:32.063Z,65.02
2023-05-23T14:47:00.193Z,65.02
2023-05-23T14:49:28.293Z,64.78
2023-05-23T14:51:56.458Z,65.12
2023-05-23T14:54:24.595Z,66.09
2023-05-23T14:56:54.108Z,65.91
2023-05-23T14:59:22.802Z,66.20
2023-05-23T15:01:51.053Z,66.57
2023-05-23T15:04:19.227Z,66.72
2023-05-23T15:06:48.533Z,67.01
2023-05-23T15:09:17.932Z,66.66
2023-05-23T15:11:47.033Z,66.75
2023-05-23T15:14:17.599Z,66.65
2023-05-23T15:16:48.729Z,66.17
2023-05-23T15:19:17.257Z,66.28
2023-05-23T15:24:16.641Z,66.92
2023-05-23T15:26:44.721Z,67.52
2023-05-23T15:29:15.319Z,67.12
2023-05-23T15:31:45.009Z,66.77
2023-05-23T15:34:13.266Z,66.30
2023-05-23T15:36:41.914Z,66.72
2023-05-23T15:39:11.894Z,66.73
2023-05-23T15:41:40.344Z,66.90
2023-05-23T15:44:08.513Z,66.84
2023-05-23T15:46:37.060Z,67.13
2023-05-23T15:49:17.628Z,67.32
2023-05-23T15:51:54.095Z,68.21
2023-05-23T15:54:22.319Z,68.50
2023-05-23T15:56:50.483Z,68.43
2023-05-23T15:59:18.664Z,68.17
2023-05-23T16:01:46.812Z,68.32
2023-05-23T16:04:16.416Z,67.73
2023-05-23T16:06:44.821Z,68.68
2023-05-23T16:09:13.132Z,68.85
2023-05-23T16:11:41.309Z,68.24
2023-05-23T16:14:09.566Z,68.03
2023-05-23T16:16:37.781Z,68.31
2023-05-23T16:19:06.068Z,68.67
2023-05-23T16:21:36.597Z,68.13
2023-05-23T16:24:06.957Z,68.03
2023-05-23T16:26:35.171Z,68.45
2023-05-23T16:29:03.360Z,68.13
2023-05-23T16:31:31.662Z,68.11
2023-05-23T16:34:00.116Z,67.87
2023-05-23T16:36:29.013Z,68.26
2023-05-23T16:38:58.483Z,67.66
2023-05-23T16:41:26.645Z,67.63
2023-05-23T16:43:54.821Z,68.10
2023-05-23T16:46:23.180Z,66.99
2023-05-23T16:48:51.397Z,66.79
2023-05-23T16:51:19.578Z,66.44
2023-05-23T16:53:47.719Z,67.79
2023-05-23T16:56:17.351Z,66.97
2023-05-23T16:58:45.730Z,67.55
2023-05-23T17:01:15.518Z,66.93
2023-05-23T17:03:43.849Z,67.04
2023-05-23T17:06:12.172Z,65.80
2023-05-23T17:08:40.349Z,66.12
2023-05-23T17:11:08.817Z,65.90
2023-05-23T17:13:38.587Z,66.43
2023-05-23T17:16:06.970Z,65.98
2023-05-23T17:18:35.240Z,65.98
2023-05-23T17:21:03.430Z,66.25
2023-05-23T17:23:31.626Z,66.30
2023-05-23T17:25:59.958Z,66.32
2023-05-23T17:28:28.073Z,66.55
2023-05-23T17:30:57.752Z,65.11
2023-05-23T17:33:25.982Z,65.03
2023-05-23T17:35:54.160Z,66.09
2023-05-23T17:38:22.339Z,66.19
2023-05-23T17:40:50.861Z,65.70
2023-05-23T17:43:19.047Z,65.46
2023-05-23T17:45:47.484Z,65.82
2023-05-23T17:48:28.178Z,65.40
2023-05-23T17:51:02.808Z,65.86
2023-05-23T17:53:31.205Z,65.34
2023-05-23T17:55:59.424Z,65.06
2023-05-23T17:58:27.699Z,64.51
2023-05-23T18:00:56.101Z,64.66
2023-05-23T18:03:25.662Z,64.96
2023-05-23T18:05:53.840Z,65.08
2023-05-23T18:08:22.150Z,64.52
2023-05-23T18:10:51.207Z,64.50
2023-05-23T18:13:19.428Z,64.40
2023-05-23T18:15:50.971Z,63.66
2023-05-23T18:18:19.263Z,63.43
2023-05-23T18:20:48.953Z,62.08
2023-05-23T18:23:17.571Z,61.62
2023-05-23T18:25:48.923Z,61.65
2023-05-23T18:28:23.444Z,62.35
2023-05-23T18:30:51.771Z,62.79
2023-05-23T18:33:20.081Z,62.22
2023-05-23T18:35:51.349Z,61.80
2023-05-23T18:38:19.571Z,62.06
2023-05-23T18:40:47.738Z,61.67
2023-05-23T18:43:17.421Z,61.48
2023-05-23T18:45:45.663Z,62.21
2023-05-23T18:48:14.702Z,61.45
2023-05-23T18:50:43.167Z,61.40
2023-05-23T18:53:12.932Z,61.05
2023-05-23T18:55:41.157Z,60.43
2023-05-23T18:58:09.435Z,60.21
2023-05-23T19:00:37.640Z,60.04
2023-05-23T19:03:05.972Z,59.86
2023-05-23T19:05:34.184Z,59.83
2023-05-23T19:08:03.274Z,60.09
2023-05-23T19:10:32.775Z,59.34
2023-05-23T19:13:03.783Z,58.03
2023-05-23T19:15:31.872Z,58.04
2023-05-23T19:18:00.380Z,57.36
2023-05-23T19:20:28.597Z,56.76
2023-05-23T19:22:56.702Z,57.49
2023-05-23T19:25:24.916Z,57.51
2023-05-23T19:27:54.460Z,56.87
2023-05-23T19:30:22.692Z,57.11
2023-05-23T19:32:51.043Z,57.81
2023-05-23T19:35:19.283Z,57.47
2023-05-23T19:37:49.153Z,57.45
2023-05-23T19:40:17.378Z,57.29
2023-05-23T19:42:45.533Z,57.39
2023-05-23T19:45:15.395Z,56.67
2023-05-23T19:47:43.635Z,57.24
2023-05-23T19:50:13.547Z,57.71
2023-05-23T19:52:42.775Z,57.66
2023-05-23T19:55:11.512Z,57.87
2023-05-23T19:57:39.671Z,58.48
2023-05-23T20:00:10.351Z,58.65
2023-05-23T20:02:40.075Z,58.68
2023-05-23T20:05:09.879Z,59.09
2023-05-23T20:07:39.061Z,59.21
2023-05-23T20:10:08.415Z,59.45
2023-05-23T20:12:36.858Z,60.43
2023-05-23T20:15:06.249Z,60.95
2023-05-23T20:17:34.433Z,61.18
2023-05-23T20:20:04.858Z,60.80
2023-05-23T20:22:33.230Z,61.29
2023-05-23T20:25:01.561Z,61.01
2023-05-23T20:27:29.931Z,61.95
2023-05-23T20:29:58.080Z,61.85
2023-05-23T20:32:26.322Z,61.56
2023-05-23T20:34:54.630Z,61.44
2023-05-23T20:37:24.136Z,61.56
2023-05-23T20:39:52.338Z,60.81
2023-05-23T20:42:20.761Z,61.34
2023-05-23T20:44:48.935Z,60.60
2023-05-23T20:47:17.645Z,60.96
2023-05-23T20:49:47.570Z,61.28
2023-05-23T20:52:15.719Z,61.65
2023-05-23T20:54:48.067Z,61.05
2023-05-23T20:57:16.481Z,61.53
2023-05-23T20:59:44.663Z,61.27
2023-05-23T21:02:13.619Z,61.34
2023-05-23T21:04:41.790Z,61.69
2023-05-23T21:07:10.001Z,61.93
2023-05-23T21:09:38.348Z,61.46
2023-05-23T21:12:08.637Z,61.05
2023-05-23T21:14:36.772Z,61.42
2023-05-23T21:17:05.732Z,61.51
2023-05-23T21:19:34.236Z,60.72
2023-05-23T21:22:02.730Z,62.10
2023-05-23T21:24:31.157Z,62.06
2023-05-23T21:27:01.623Z,61.35
2023-05-23T21:29:31.373Z,61.13
2023-05-23T21:31:59.492Z,61.50
2023-05-23T21:34:27.710Z,60.87
2023-05-23T21:36:55.900Z,62.06
2023-05-23T21:39:24.011Z,61.48
2023-05-23T21:41:52.146Z,61.52
2023-05-23T21:44:20.409Z,62.09
2023-05-23T21:46:49.951Z,62.18
2023-05-23T21:49:18.179Z,61.98
2023-05-23T21:51:46.330Z,62.02
2023-05-23T21:54:14.480Z,62.05
2023-05-23T21:56:42.784Z,62.93
2023-05-23T21:59:11.273Z,63.11
2023-05-23T22:01:39.495Z,63.11
2023-05-23T22:04:09.183Z,62.86
2023-05-23T22:06:38.370Z,62.42
2023-05-23T22:09:10.155Z,61.97
2023-05-23T22:11:38.443Z,61.29
2023-05-23T22:14:06.586Z,61.84
2023-05-23T22:16:39.147Z,60.42
2023-05-23T22:19:10.341Z,60.80
2023-05-23T22:21:38.928Z,60.14
2023-05-23T22:24:07.667Z,60.14
2023-05-23T22:26:36.699Z,58.58
2023-05-23T22:29:04.851Z,58.30
2023-05-23T22:31:33.389Z,57.41
2023-05-23T22:34:01.622Z,57.12
2023-05-23T22:36:31.304Z,57.57
2023-05-23T22:39:02.082Z,57.60
2023-05-23T22:41:30.249Z,57.08
2023-05-23T22:43:58.432Z,56.20
2023-05-23T22:46:26.571Z,56.65
2023-05-23T22:48:55.677Z,56.89
2023-05-23T22:51:24.753Z,56.94
2023-05-23T22:53:54.282Z,57.35
2023-05-23T22:56:22.791Z,57.36
2023-05-23T22:58:51.002Z,58.07
2023-05-23T23:01:19.195Z,58.18
2023-05-23T23:03:47.399Z,59.08
2023-05-23T23:06:15.514Z,58.51
2023-05-23T23:08:43.854Z,58.48
2023-05-23T23:11:13.319Z,58.52
2023-05-23T23:13:41.480Z,58.13
2023-05-23T23:16:10.059Z,58.61
2023-05-23T23:18:38.157Z,58.43
2023-05-23T23:21:06.620Z,58.26
2023-05-23T23:23:36.531Z,58.77
2023-05-23T23:26:04.857Z,57.54
2023-05-23T23:28:34.386Z,58.44
2023-05-23T23:31:02.709Z,58.92
2023-05-23T23:33:31.135Z,59.52
2023-05-23T23:35:59.312Z,60.14
2023-05-23T23:38:27.517Z,60.47
2023-05-23T23:40:55.626Z,59.69
2023-05-23T23:43:24.068Z,59.92
2023-05-23T23:45:53.584Z,60.89
2023-05-23T23:48:21.717Z,61.08
2023-05-23T23:50:50.071Z,61.12
2023-05-23T23:53:21.271Z,61.29
2023-05-23T23:55:49.636Z,61.46
2023-05-23T23:58:18.000Z,61.24
